Time;durP1;ratioP1;P1;durP2;ratioP2;P2;SDS_P1;SDS_P2;PMS_P1;PMS_P2;Temp;Humidity;BMP_temperature;BMP_pressure;BME280_temperature;BME280_humidity;BME280_pressure;Samples;Min_cycle;Max_cycle;Signal;HPM_P1;HPM_P2
2022/05/16 00:01:51;;;;;;;4.10;3.70;;;14.10;99.90;;;;;;5042003;28;20103;-58
2022/05/16 00:04:18;;;;;;;5.30;4.80;;;14.00;99.90;;;;;;5041561;28;20045;-58
2022/05/16 00:06:44;;;;;;;4.10;3.70;;;14.00;99.90;;;;;;5043633;28;20118;-58
2022/05/16 00:09:11;;;;;;;4.75;4.35;;;14.00;99.90;;;;;;5043514;28;20520;-58
2022/05/16 00:11:38;;;;;;;4.15;3.83;;;13.90;99.90;;;;;;5044311;28;20052;-58
2022/05/16 00:14:05;;;;;;;4.38;3.97;;;13.90;99.90;;;;;;5042781;28;20096;-59
2022/05/16 00:16:32;;;;;;;4.53;4.13;;;13.80;99.90;;;;;;5043801;28;20132;-58
2022/05/16 00:19:02;;;;;;;4.53;4.13;;;13.70;99.90;;;;;;5042729;28;20860;-58
2022/05/16 00:21:29;;;;;;;4.80;4.35;;;13.70;99.90;;;;;;5043352;28;20134;-58
2022/05/16 00:23:56;;;;;;;4.72;4.32;;;13.70;99.90;;;;;;5043529;28;20081;-59
2022/05/16 00:26:22;;;;;;;5.22;4.47;;;13.60;99.90;;;;;;5043293;28;20057;-59
2022/05/16 00:28:49;;;;;;;5.07;4.32;;;13.60;99.90;;;;;;5043059;28;20048;-58
2022/05/16 00:31:16;;;;;;;5.10;4.70;;;13.60;99.90;;;;;;5043762;28;20161;-58
2022/05/16 00:33:43;;;;;;;5.30;4.28;;;13.60;99.90;;;;;;5042434;28;20489;-59
2022/05/16 00:36:10;;;;;;;4.50;4.10;;;13.60;99.90;;;;;;5042519;28;20140;-59
2022/05/16 00:38:36;;;;;;;4.45;4.05;;;13.60;99.90;;;;;;5043198;28;20135;-58
2022/05/16 00:41:03;;;;;;;5.03;4.63;;;13.60;99.90;;;;;;5043393;28;20134;-58
2022/05/16 00:43:45;;;;;;;4.55;4.15;;;13.50;99.90;;;;;;5042825;28;20606;-59
2022/05/16 00:46:14;;;;;;;4.30;3.90;;;13.50;99.90;;;;;;5042796;28;20080;-58
2022/05/16 00:48:41;;;;;;;4.90;4.50;;;13.50;99.90;;;;;;5041939;28;20055;-58
2022/05/16 00:51:11;;;;;;;4.82;4.43;;;13.50;99.90;;;;;;5043206;28;20107;-59
2022/05/16 00:53:38;;;;;;;4.63;4.22;;;13.50;99.90;;;;;;5025379;28;20079;-58
2022/05/16 00:56:05;;;;;;;5.30;4.80;;;13.40;99.90;;;;;;5024801;28;20045;-58
2022/05/16 00:58:32;;;;;;;5.43;4.93;;;13.40;99.90;;;;;;5024812;28;20049;-58
2022/05/16 01:00:58;;;;;;;6.60;5.00;;;13.40;99.90;;;;;;5025097;28;20567;-58
2022/05/16 01:06:11;;;;;;;4.70;4.30;;;13.30;99.90;;;;;;5041946;28;20076;-62
2022/05/16 01:08:39;;;;;;;4.78;4.38;;;13.30;99.90;;;;;;5042746;28;20049;-58
2022/05/16 01:11:08;;;;;;;5.45;4.95;;;13.30;99.90;;;;;;5042688;28;20064;-58
2022/05/16 01:13:35;;;;;;;4.90;4.40;;;13.20;99.90;;;;;;5042048;28;20132;-58
2022/05/16 01:16:02;;;;;;;5.07;4.68;;;13.20;99.90;;;;;;5042401;28;20495;-59
2022/05/16 01:18:29;;;;;;;4.60;4.20;;;13.10;99.90;;;;;;5043135;28;20056;-58
2022/05/16 01:21:05;;;;;;;5.10;4.60;;;13.10;99.90;;;;;;5041640;28;20045;-59
2022/05/16 01:23:36;;;;;;;5.25;4.75;;;13.10;99.90;;;;;;5043007;28;20147;-59
2022/05/16 01:26:19;;;;;;;5.03;4.55;;;13.00;99.90;;;;;;5025382;28;20131;-58
2022/05/16 01:28:46;;;;;;;5.13;4.68;;;13.00;99.90;;;;;;5025646;28;20045;-59
2022/05/16 01:31:13;;;;;;;5.05;4.55;;;13.00;99.90;;;;;;5043612;28;20487;-59
2022/05/16 01:33:40;;;;;;;5.00;4.57;;;13.00;99.90;;;;;;5031037;28;20052;-58
2022/05/16 01:36:07;;;;;;;6.32;4.93;;;13.00;99.90;;;;;;5020198;28;20127;-59
2022/05/16 01:38:33;;;;;;;5.10;4.60;;;13.00;99.90;;;;;;5044174;28;20088;-59
2022/05/16 01:41:04;;;;;;;5.28;4.78;;;12.90;99.90;;;;;;5044449;28;20106;-59
2022/05/16 01:43:38;;;;;;;6.20;4.88;;;12.90;99.90;;;;;;5043715;28;20168;-59
2022/05/16 01:46:05;;;;;;;4.50;4.10;;;12.90;99.90;;;;;;5043923;28;20702;-59
2022/05/16 01:48:32;;;;;;;5.40;4.90;;;12.90;99.90;;;;;;5044065;28;20048;-59
2022/05/16 01:51:00;;;;;;;5.30;4.55;;;12.90;99.90;;;;;;5043417;28;20084;-58
2022/05/16 01:53:27;;;;;;;4.60;4.20;;;12.80;99.90;;;;;;5044289;28;20132;-58
2022/05/16 01:55:54;;;;;;;4.72;4.32;;;12.80;99.90;;;;;;5043979;28;20621;-58
2022/05/16 01:58:21;;;;;;;5.18;4.68;;;12.80;99.90;;;;;;5043831;28;20135;-58
2022/05/16 02:00:48;;;;;;;5.47;4.97;;;12.80;99.90;;;;;;5043497;28;20124;-57
2022/05/16 02:03:15;;;;;;;4.90;4.50;;;12.70;99.90;;;;;;5044100;28;20136;-58
2022/05/16 02:05:43;;;;;;;5.22;4.72;;;12.70;99.90;;;;;;5042292;28;20048;-58
2022/05/16 02:08:11;;;;;;;4.82;4.32;;;12.70;99.90;;;;;;5026830;28;20077;-58
2022/05/16 02:10:38;;;;;;;5.50;5.00;;;12.70;99.90;;;;;;5043817;28;20088;-58
2022/05/16 02:13:05;;;;;;;4.63;4.22;;;12.60;99.90;;;;;;5043894;28;20120;-58
2022/05/16 02:15:33;;;;;;;4.82;4.38;;;12.60;99.90;;;;;;5045349;28;20084;-58
2022/05/16 02:18:00;;;;;;;4.88;4.47;;;12.60;99.90;;;;;;5048190;28;20059;-58
2022/05/16 02:20:27;;;;;;;4.78;4.38;;;12.60;99.90;;;;;;5046406;28;20091;-58
2022/05/16 02:25:42;;;;;;;5.13;4.63;;;12.60;99.90;;;;;;5047844;28;20049;-59
2022/05/16 02:28:14;;;;;;;4.32;3.92;;;12.60;99.90;;;;;;5047835;28;20244;-59
2022/05/16 02:30:44;;;;;;;5.20;4.70;;;12.50;99.90;;;;;;5047260;28;20084;-59
2022/05/16 02:33:11;;;;;;;5.07;4.57;;;12.50;99.90;;;;;;5047441;28;20057;-59
2022/05/16 02:35:38;;;;;;;5.28;4.78;;;12.50;99.90;;;;;;5045829;28;20098;-60
2022/05/16 02:38:05;;;;;;;5.07;4.65;;;12.50;99.90;;;;;;5029836;28;20512;-59
2022/05/16 02:40:32;;;;;;;5.18;4.68;;;12.40;99.90;;;;;;5047450;28;20896;-59
2022/05/16 02:42:59;;;;;;;4.82;4.43;;;12.40;99.90;;;;;;5047701;28;20150;-59
2022/05/16 02:45:26;;;;;;;4.93;4.53;;;12.40;99.90;;;;;;5046733;28;20044;-59
2022/05/16 02:47:53;;;;;;;5.68;5.13;;;12.40;99.90;;;;;;5047433;28;20140;-60
2022/05/16 02:50:23;;;;;;;5.47;4.97;;;12.30;99.90;;;;;;5045619;28;20144;-59
2022/05/16 02:52:50;;;;;;;4.43;4.03;;;12.40;99.90;;;;;;5029835;28;20191;-58
2022/05/16 02:55:17;;;;;;;4.78;4.35;;;12.40;99.90;;;;;;5047055;28;20131;-59
2022/05/16 02:57:44;;;;;;;5.60;5.10;;;12.40;99.90;;;;;;5047548;28;20147;-59
2022/05/16 03:00:12;;;;;;;4.55;4.15;;;12.50;99.90;;;;;;5046375;28;20041;-59
2022/05/16 03:02:40;;;;;;;5.07;4.68;;;12.50;99.90;;;;;;5047546;28;20179;-59
2022/05/16 03:05:07;;;;;;;4.95;4.55;;;12.50;99.90;;;;;;5045564;28;20049;-59
2022/05/16 03:07:34;;;;;;;4.63;4.22;;;12.60;99.90;;;;;;5046636;28;20080;-60
2022/05/16 03:10:01;;;;;;;5.57;5.07;;;12.60;99.90;;;;;;5047014;28;20076;-60
2022/05/16 03:12:28;;;;;;;5.20;4.60;;;12.60;99.90;;;;;;5029579;28;20106;-60
2022/05/16 03:14:54;;;;;;;5.25;4.85;;;12.50;99.90;;;;;;5046040;28;20143;-60
2022/05/16 03:17:23;;;;;;;5.38;4.88;;;12.60;99.90;;;;;;5046394;28;20049;-60
2022/05/16 03:19:49;;;;;;;5.22;4.72;;;12.60;99.90;;;;;;5045517;28;20152;-60
2022/05/16 03:22:17;;;;;;;5.70;5.20;;;12.60;99.90;;;;;;5028805;28;20491;-58
2022/05/16 03:24:44;;;;;;;5.50;5.00;;;12.60;99.90;;;;;;5045939;28;20531;-58
2022/05/16 03:27:11;;;;;;;5.97;5.47;;;12.70;99.90;;;;;;5046415;28;20143;-58
2022/05/16 03:29:38;;;;;;;5.57;5.00;;;12.70;99.90;;;;;;5045976;28;20053;-58
2022/05/16 03:32:06;;;;;;;6.57;5.97;;;12.80;99.90;;;;;;5046582;28;20053;-58
2022/05/16 03:34:33;;;;;;;5.97;5.32;;;12.80;99.90;;;;;;5045492;28;20435;-58
2022/05/16 03:37:00;;;;;;;5.80;5.05;;;12.80;99.90;;;;;;5028281;28;20163;-57
2022/05/16 03:42:12;;;;;;;5.50;5.00;;;12.70;99.90;;;;;;5046960;28;20147;-59
2022/05/16 03:44:39;;;;;;;5.65;5.15;;;12.70;99.90;;;;;;5045468;28;20582;-60
2022/05/16 03:47:06;;;;;;;4.90;4.50;;;12.70;99.90;;;;;;5046147;28;20155;-60
2022/05/16 03:49:32;;;;;;;5.38;4.85;;;12.60;99.90;;;;;;5045156;28;20074;-60
2022/05/16 03:51:59;;;;;;;5.53;5.03;;;12.50;99.90;;;;;;5046187;28;20135;-60
2022/05/16 03:54:26;;;;;;;5.18;4.78;;;12.50;99.90;;;;;;5045896;28;20102;-60
2022/05/16 03:56:53;;;;;;;5.63;5.13;;;12.50;99.90;;;;;;5045795;28;20210;-59
2022/05/16 03:59:19;;;;;;;5.45;4.95;;;12.50;99.90;;;;;;5045221;28;20045;-60
2022/05/16 04:01:46;;;;;;;5.07;4.63;;;12.50;99.90;;;;;;5046365;28;20469;-60
2022/05/16 04:04:13;;;;;;;5.22;4.72;;;12.50;99.90;;;;;;5044422;28;20076;-60
2022/05/16 04:06:40;;;;;;;5.47;4.97;;;12.40;99.90;;;;;;5045555;28;20045;-60
2022/05/16 04:09:06;;;;;;;4.97;4.55;;;12.40;99.90;;;;;;5045359;28;20152;-60
2022/05/16 04:11:34;;;;;;;5.35;4.85;;;12.40;99.90;;;;;;5028157;28;20132;-60
2022/05/16 04:14:01;;;;;;;5.82;5.32;;;12.40;99.90;;;;;;5045099;28;20526;-60
2022/05/16 04:16:28;;;;;;;5.18;4.68;;;12.40;99.90;;;;;;5045593;28;20148;-59
2022/05/16 04:18:55;;;;;;;5.68;5.07;;;12.40;99.90;;;;;;5044410;28;20142;-60
2022/05/16 04:21:21;;;;;;;5.32;4.85;;;12.40;99.90;;;;;;5045175;28;20059;-60
2022/05/16 04:23:48;;;;;;;4.82;4.43;;;12.40;99.90;;;;;;5045272;28;20055;-60
2022/05/16 04:26:15;;;;;;;5.25;4.40;;;12.40;99.90;;;;;;5045546;28;20505;-60
2022/05/16 04:28:42;;;;;;;5.43;4.93;;;12.40;99.90;;;;;;5027167;28;20381;-60
2022/05/16 04:31:08;;;;;;;5.07;4.63;;;12.40;99.90;;;;;;5045535;28;20137;-60
2022/05/16 04:33:35;;;;;;;5.32;4.82;;;12.30;99.90;;;;;;5044582;28;20080;-59
2022/05/16 04:36:02;;;;;;;5.20;4.70;;;12.40;99.90;;;;;;5044550;28;20076;-60
2022/05/16 04:38:29;;;;;;;5.20;4.70;;;12.40;99.90;;;;;;5044262;28;20141;-59
2022/05/16 04:43:41;;;;;;;5.50;5.00;;;12.50;99.90;;;;;;5044711;28;20140;-60
2022/05/16 04:46:08;;;;;;;5.28;4.78;;;12.50;99.90;;;;;;5044987;28;20146;-60
2022/05/16 04:48:35;;;;;;;5.65;5.15;;;12.60;99.90;;;;;;5044486;28;20056;-59
2022/05/16 04:51:02;;;;;;;5.65;5.15;;;12.60;99.90;;;;;;5044167;28;20481;-60
2022/05/16 04:53:29;;;;;;;5.22;4.78;;;12.60;99.90;;;;;;5044632;28;20049;-59
2022/05/16 04:55:56;;;;;;;5.70;5.20;;;12.60;99.90;;;;;;5026750;28;20535;-60
2022/05/16 04:58:23;;;;;;;6.07;5.47;;;12.60;99.90;;;;;;5044507;28;20053;-60
2022/05/16 05:00:49;;;;;;;5.60;5.10;;;12.70;99.90;;;;;;5043852;28;20128;-59
2022/05/16 05:03:16;;;;;;;5.78;5.22;;;12.60;99.90;;;;;;5034574;28;20045;-60
2022/05/16 05:05:43;;;;;;;4.85;4.45;;;12.70;99.90;;;;;;5041088;28;20041;-60
2022/05/16 05:08:10;;;;;;;5.00;4.50;;;12.70;99.90;;;;;;5042777;28;20139;-60
2022/05/16 05:16:15;;;;;;;5.47;4.97;;;12.90;99.90;;;;;;5042437;28;20128;-60
2022/05/16 05:18:42;;;;;;;5.18;4.68;;;12.90;99.90;;;;;;5025178;28;20515;-59
2022/05/16 05:21:09;;;;;;;5.03;4.53;;;13.00;99.90;;;;;;5042337;28;20088;-59
2022/05/16 05:23:38;;;;;;;5.07;4.68;;;13.10;99.90;;;;;;5042311;28;20103;-60
2022/05/16 05:26:06;;;;;;;4.80;4.35;;;13.10;99.90;;;;;;5042408;28;20163;-59
2022/05/16 05:28:33;;;;;;;4.57;4.18;;;13.20;99.90;;;;;;5042391;28;20156;-60
2022/05/16 05:31:00;;;;;;;4.32;3.92;;;13.30;99.90;;;;;;5042370;28;20061;-60
2022/05/16 05:33:27;;;;;;;4.93;4.53;;;13.30;99.90;;;;;;5042276;28;20083;-60
2022/05/16 05:35:54;;;;;;;4.63;4.20;;;13.40;99.90;;;;;;5041107;28;20561;-60
2022/05/16 05:38:20;;;;;;;4.80;4.40;;;13.60;99.90;;;;;;5031390;28;20128;-60
2022/05/16 05:40:49;;;;;;;4.53;4.13;;;13.60;99.90;;;;;;5032782;28;20500;-57
2022/05/16 05:43:16;;;;;;;4.28;3.88;;;13.70;99.90;;;;;;5031208;28;20089;-59
2022/05/16 05:45:43;;;;;;;3.95;3.60;;;13.80;99.90;;;;;;5012736;28;20181;-60
2022/05/16 05:48:10;;;;;;;4.13;3.72;;;14.00;99.90;;;;;;5035043;28;20477;-59
2022/05/16 05:50:37;;;;;;;3.78;3.38;;;14.10;99.90;;;;;;5032629;28;20115;-59
2022/05/16 05:53:03;;;;;;;4.53;4.13;;;14.20;99.90;;;;;;5031143;28;20110;-59
2022/05/16 05:55:30;;;;;;;4.38;3.85;;;14.30;99.90;;;;;;5030223;28;20137;-60
2022/05/16 05:57:57;;;;;;;4.75;4.18;;;14.40;99.90;;;;;;5033800;28;20060;-60
2022/05/16 06:00:24;;;;;;;4.10;3.63;;;14.40;99.90;;;;;;5034299;28;20120;-59
2022/05/16 06:02:51;;;;;;;3.78;3.40;;;14.50;99.90;;;;;;5030571;28;20053;-60
2022/05/16 06:05:19;;;;;;;3.55;3.25;;;14.60;99.90;;;;;;5017767;28;20049;-59
2022/05/16 06:07:47;;;;;;;4.07;3.42;;;14.60;99.90;;;;;;5044647;28;20045;-60
2022/05/16 06:10:13;;;;;;;3.58;3.22;;;14.70;99.90;;;;;;5029603;28;20415;-60
2022/05/16 06:12:40;;;;;;;4.50;3.35;;;14.80;99.90;;;;;;5042046;28;20187;-60
2022/05/16 06:15:08;;;;;;;3.92;3.30;;;14.80;99.90;;;;;;5044601;28;20124;-60
2022/05/16 06:17:38;;;;;;;3.83;3.30;;;14.90;99.90;;;;;;5038607;28;20106;-60
2022/05/16 06:20:07;;;;;;;3.33;2.97;;;15.00;99.90;;;;;;5036927;28;20340;-59
2022/05/16 06:22:35;;;;;;;3.72;3.03;;;15.00;99.90;;;;;;5038462;28;20114;-60
2022/05/16 06:27:53;;;;;;;3.92;3.50;;;15.20;99.90;;;;;;5030811;28;20084;-60
2022/05/16 06:30:21;;;;;;;4.25;3.58;;;15.20;99.90;;;;;;5026384;28;20045;-60
2022/05/16 06:32:48;;;;;;;4.80;3.92;;;15.30;99.90;;;;;;5013080;28;20965;-60
2022/05/16 06:35:15;;;;;;;4.07;3.67;;;15.40;99.90;;;;;;5024961;28;21206;-60
2022/05/16 06:37:42;;;;;;;5.18;4.40;;;15.40;99.90;;;;;;5036999;28;20061;-60
2022/05/16 06:40:10;;;;;;;4.72;3.55;;;15.40;99.90;;;;;;5038993;28;20136;-60
2022/05/16 06:42:36;;;;;;;4.80;3.80;;;15.30;99.90;;;;;;5033376;28;20087;-57
2022/05/16 06:45:05;;;;;;;4.60;4.13;;;15.40;99.90;;;;;;5038481;28;20144;-60
2022/05/16 06:47:31;;;;;;;5.13;4.18;;;15.30;99.90;;;;;;5039334;28;20126;-60
2022/05/16 06:49:58;;;;;;;6.00;4.97;;;15.30;99.90;;;;;;5038531;28;20096;-60
2022/05/16 06:52:25;;;;;;;5.55;4.32;;;15.30;99.90;;;;;;5020900;28;20132;-60
2022/05/16 06:54:52;;;;;;;6.63;4.80;;;15.20;99.90;;;;;;5038447;28;20059;-60
2022/05/16 06:57:18;;;;;;;5.55;4.93;;;15.30;99.90;;;;;;5039597;28;20469;-60
2022/05/16 06:59:45;;;;;;;5.07;4.57;;;15.20;99.90;;;;;;5038087;28;20156;-57
2022/05/16 07:02:12;;;;;;;6.43;5.82;;;15.30;99.90;;;;;;5040216;28;20060;-60
2022/05/16 07:04:39;;;;;;;6.15;5.55;;;15.30;99.90;;;;;;5037322;28;20053;-60
2022/05/16 07:07:28;;;;;;;6.32;5.20;;;15.30;99.90;;;;;;5042647;28;20138;-60
2022/05/16 07:09:55;;;;;;;6.72;5.90;;;15.30;99.90;;;;;;5041396;28;20144;-60
2022/05/16 07:12:22;;;;;;;5.80;4.53;;;15.40;99.90;;;;;;5042915;28;20049;-60
2022/05/16 07:14:48;;;;;;;6.38;4.88;;;15.60;99.90;;;;;;5041852;28;20459;-60
2022/05/16 07:17:15;;;;;;;6.78;5.45;;;15.70;99.90;;;;;;5038231;28;20057;-60
2022/05/16 07:19:42;;;;;;;5.85;5.25;;;15.80;99.90;;;;;;5023591;28;20063;-60
2022/05/16 07:22:09;;;;;;;6.95;6.22;;;15.90;99.90;;;;;;5026462;28;20073;-60
2022/05/16 07:24:35;;;;;;;7.82;6.57;;;16.00;99.90;;;;;;5047749;28;20057;-60
2022/05/16 07:29:48;;;;;;;6.43;5.30;;;16.30;99.90;;;;;;5046882;28;20150;-60
2022/05/16 07:32:14;;;;;;;6.20;5.25;;;16.30;99.90;;;;;;5048237;28;20045;-60
2022/05/16 07:34:41;;;;;;;6.63;5.25;;;16.50;99.90;;;;;;5028722;28;20064;-60
2022/05/16 07:37:08;;;;;;;5.82;4.95;;;16.60;99.90;;;;;;5046604;28;20690;-60
2022/05/16 07:39:35;;;;;;;6.75;4.55;;;16.80;99.90;;;;;;5046142;28;20081;-60
2022/05/16 07:42:03;;;;;;;5.70;5.10;;;16.90;99.90;;;;;;5046325;28;20133;-60
2022/05/16 07:44:30;;;;;;;5.55;4.32;;;17.00;99.90;;;;;;5045541;28;20137;-60
2022/05/16 07:46:56;;;;;;;4.60;3.83;;;17.10;99.90;;;;;;5045797;28;20135;-61
2022/05/16 07:49:23;;;;;;;5.57;5.05;;;17.10;99.90;;;;;;5027015;28;20111;-60
2022/05/16 07:51:50;;;;;;;5.45;4.70;;;17.20;99.90;;;;;;5046428;28;20414;-60
2022/05/16 07:54:17;;;;;;;5.15;4.63;;;17.30;99.90;;;;;;5047074;28;20055;-60
2022/05/16 07:56:44;;;;;;;5.93;5.05;;;17.30;99.90;;;;;;5047763;28;20152;-57
2022/05/16 07:59:10;;;;;;;7.35;5.00;;;17.40;99.90;;;;;;5046905;28;20048;-58
2022/05/16 08:01:38;;;;;;;6.60;5.00;;;17.40;99.90;;;;;;5047243;28;20080;-58
2022/05/16 08:04:06;;;;;;;6.25;4.80;;;17.40;99.90;;;;;;5045797;28;20551;-57
2022/05/16 08:06:33;;;;;;;6.07;4.82;;;17.40;99.90;;;;;;5046649;28;20526;-58
2022/05/16 08:11:46;;;;;;;4.72;3.80;;;17.40;99.90;;;;;;5032378;28;20060;-60
2022/05/16 08:14:13;;;;;;;5.43;4.60;;;17.30;99.90;;;;;;5046964;28;20136;-60
2022/05/16 08:16:40;;;;;;;4.97;4.22;;;17.20;99.90;;;;;;5029551;28;20095;-58
2022/05/16 08:19:07;;;;;;;6.03;4.22;;;17.20;99.90;;;;;;5045834;28;20549;-58
2022/05/16 08:21:34;;;;;;;5.57;5.07;;;17.30;99.90;;;;;;5029383;28;20204;-57
2022/05/16 08:24:02;;;;;;;5.00;4.50;;;17.20;99.90;;;;;;5046312;28;20505;-58
2022/05/16 08:26:29;;;;;;;5.32;4.82;;;17.20;99.90;;;;;;5046660;28;20092;-58
2022/05/16 08:28:56;;;;;;;6.72;5.53;;;17.20;99.90;;;;;;5028461;28;20151;-60
2022/05/16 08:31:28;;;;;;;6.63;6.00;;;17.20;99.90;;;;;;5046752;28;20059;-60
2022/05/16 08:33:56;;;;;;;6.17;5.10;;;17.40;99.90;;;;;;5045361;28;20138;-60
2022/05/16 08:42:04;;;;;;;5.45;4.95;;;18.10;99.90;;;;;;5047021;28;20080;-58
2022/05/16 08:44:59;;;;;;;5.35;4.47;;;18.10;99.90;;;;;;5045480;28;20509;-58
2022/05/16 08:47:53;;;;;;;4.85;4.38;;;18.20;99.90;;;;;;5046738;28;20055;-58
2022/05/16 08:50:26;;;;;;;4.05;3.45;;;18.20;99.90;;;;;;5028157;28;20053;-58
2022/05/16 08:53:12;;;;;;;4.05;3.65;;;18.20;99.90;;;;;;5029305;28;20605;-58
2022/05/16 08:55:41;;;;;;;3.88;3.47;;;18.30;99.90;;;;;;5028163;28;20045;-58
2022/05/16 08:58:13;;;;;;;3.90;3.60;;;18.50;99.90;;;;;;5028425;28;20083;-58
2022/05/16 09:00:48;;;;;;;4.90;3.90;;;18.70;99.90;;;;;;5045262;28;20232;-58
2022/05/16 09:03:19;;;;;;;5.45;4.05;;;18.70;99.90;;;;;;5025033;28;20431;-58
2022/05/16 09:05:49;;;;;;;5.15;4.53;;;18.70;99.90;;;;;;5023662;28;20063;-58
2022/05/16 09:08:24;;;;;;;4.40;3.63;;;18.70;99.90;;;;;;5045839;28;20117;-58
2022/05/16 09:11:07;;;;;;;4.50;3.85;;;18.70;99.90;;;;;;5028233;28;20049;-58
2022/05/16 09:13:40;;;;;;;3.70;3.30;;;18.70;99.90;;;;;;5041811;28;20187;-58
2022/05/16 09:16:23;;;;;;;3.42;3.00;;;18.70;99.90;;;;;;5041965;28;20099;-58
2022/05/16 09:18:53;;;;;;;;;;;18.70;99.90;;;;;;5023029;28;20101;-58
2022/05/16 09:21:25;;;;;;;6.85;3.88;;;18.70;99.90;;;;;;5010338;28;20348;-60
2022/05/16 09:24:01;;;;;;;3.88;2.90;;;18.90;99.90;;;;;;5043624;28;20933;-61
2022/05/16 09:26:50;;;;;;;3.50;2.80;;;19.00;99.90;;;;;;5024353;28;20072;-59
2022/05/16 09:29:28;;;;;;;2.97;2.67;;;19.10;99.90;;;;;;5026793;28;20091;-60
2022/05/16 09:32:16;;;;;;;3.13;2.83;;;19.10;99.90;;;;;;5042984;28;20475;-60
2022/05/16 09:34:43;;;;;;;4.05;3.00;;;18.90;99.90;;;;;;5040410;28;20114;-58
2022/05/16 09:37:10;;;;;;;4.70;2.95;;;18.70;99.90;;;;;;5032874;28;20156;-58
2022/05/16 09:39:44;;;;;;;;;;;18.60;99.90;;;;;;5046026;28;20120;-59
2022/05/16 09:42:16;;;;;;;3.70;2.47;;;18.70;99.90;;;;;;5045728;28;19979;-58
2022/05/16 09:44:48;;;;;;;3.03;2.08;;;18.90;99.90;;;;;;5027119;28;20084;-58
2022/05/16 09:47:30;;;;;;;2.10;1.90;;;19.10;99.90;;;;;;5045755;28;20081;-58
2022/05/16 09:50:02;;;;;;;3.88;2.33;;;19.10;99.90;;;;;;5042894;28;20084;-60
2022/05/16 09:52:30;;;;;;;3.25;1.95;;;19.10;99.90;;;;;;5041983;28;20416;-60
2022/05/16 09:55:04;;;;;;;3.20;1.85;;;19.10;99.90;;;;;;5022491;28;20080;-58
2022/05/16 09:57:38;;;;;;;2.20;1.60;;;19.10;99.90;;;;;;5043524;28;20482;-58
2022/05/16 10:00:30;;;;;;;3.50;1.75;;;19.20;99.90;;;;;;5042988;28;20091;-58
2022/05/16 10:03:22;;;;;;;3.60;1.98;;;19.40;99.90;;;;;;5023449;28;20065;-59
2022/05/16 10:05:51;;;;;;;2.88;1.42;;;19.50;99.90;;;;;;5038622;28;20065;-59
2022/05/16 10:08:40;;;;;;;2.63;1.60;;;19.80;99.90;;;;;;5041921;28;20049;-58
2022/05/16 10:11:17;;;;;;;3.67;1.50;;;20.00;99.90;;;;;;5045573;28;20144;-60
2022/05/16 10:13:44;;;;;;;2.40;1.63;;;20.00;99.90;;;;;;5044848;28;20792;-59
2022/05/16 10:16:11;;;;;;;2.55;1.30;;;19.90;99.90;;;;;;5027529;28;20128;-59
2022/05/16 10:18:50;;;;;;;2.63;1.63;;;19.80;99.90;;;;;;5010168;28;20076;-58
2022/05/16 10:21:36;;;;;;;2.85;1.35;;;19.80;99.90;;;;;;5027469;28;20063;-58
2022/05/16 10:24:04;;;;;;;3.53;1.20;;;19.70;99.90;;;;;;5041814;28;20687;-58
2022/05/16 10:26:40;;;;;;;2.33;1.45;;;19.60;99.90;;;;;;5024445;28;20049;-59
2022/05/16 10:29:09;;;;;;;3.42;1.50;;;19.50;99.90;;;;;;5025710;28;20104;-59
2022/05/16 10:34:49;;;;;;;1.50;0.88;;;19.40;99.90;;;;;;5029015;28;20464;-58
2022/05/16 10:37:16;;;;;;;2.50;0.98;;;19.50;99.90;;;;;;5030230;28;20088;-59
2022/05/16 10:39:46;;;;;;;3.78;1.30;;;19.60;99.90;;;;;;5030579;28;20172;-59
2022/05/16 10:42:19;;;;;;;1.83;0.80;;;19.90;99.90;;;;;;5031346;28;20055;-59
2022/05/16 10:44:48;;;;;;;;;;;19.90;99.90;;;;;;5048688;28;20053;-59
2022/05/16 10:47:25;;;;;;;2.42;1.13;;;19.90;99.90;;;;;;5049197;28;19967;-59
2022/05/16 10:50:10;;;;;;;4.55;1.60;;;19.80;99.90;;;;;;5030422;28;20045;-59
2022/05/16 10:52:47;;;;;;;2.33;1.40;;;19.70;99.90;;;;;;5014054;28;20669;-59
2022/05/16 10:55:13;;;;;;;2.00;1.25;;;19.80;99.90;;;;;;5048225;28;20128;-59
2022/05/16 10:58:01;;;;;;;3.58;1.48;;;19.90;99.90;;;;;;5046758;28;20147;-59
2022/05/16 11:00:34;;;;;;;2.85;1.58;;;19.80;99.90;;;;;;5027818;28;20084;-59
2022/05/16 11:03:04;;;;;;;3.35;1.60;;;19.70;99.90;;;;;;5047761;28;20136;-59
2022/05/16 11:06:13;;;;;;;2.90;1.50;;;19.60;99.90;;;;;;5046476;28;20053;-59
2022/05/16 11:08:52;;;;;;;2.65;1.50;;;19.50;99.90;;;;;;5029416;28;20128;-59
2022/05/16 11:11:31;;;;;;;3.28;1.40;;;19.60;99.90;;;;;;5027421;28;20734;-59
2022/05/16 11:14:30;;;;;;;2.88;1.70;;;19.90;99.90;;;;;;5045080;28;20055;-59
2022/05/16 11:17:27;;;;;;;2.10;1.25;;;20.20;99.90;;;;;;5028483;28;20089;-59
2022/05/16 11:20:04;;;;;;;2.50;1.50;;;20.50;99.90;;;;;;5026563;28;20611;-59
2022/05/16 11:22:37;;;;;;;2.70;1.50;;;20.80;99.90;;;;;;5010490;28;20089;-61
2022/05/16 11:25:13;;;;;;;3.78;1.92;;;20.80;99.90;;;;;;5027029;28;20076;-58
2022/05/16 11:27:46;;;;;;;2.60;1.73;;;20.90;99.90;;;;;;5027635;28;20071;-59
2022/05/16 11:30:21;;;;;;;3.28;1.85;;;21.00;99.90;;;;;;5047583;28;20447;-58
2022/05/16 11:32:54;;;;;;;3.25;1.40;;;20.90;99.90;;;;;;5030243;28;20060;-59
2022/05/16 11:35:27;;;;;;;2.35;1.50;;;21.00;99.90;;;;;;5028439;28;20124;-58
2022/05/16 11:38:19;;;;;;;3.78;1.80;;;21.30;99.90;;;;;;5030176;28;20140;-59
2022/05/16 11:40:57;;;;;;;3.55;2.25;;;21.60;99.90;;;;;;5030456;28;20147;-59
2022/05/16 11:43:28;;;;;;;2.97;1.90;;;21.30;99.90;;;;;;5047299;28;20125;-59
2022/05/16 11:46:17;;;;;;;3.72;2.05;;;21.10;99.90;;;;;;5047202;28;20084;-59
2022/05/16 11:49:15;;;;;;;4.13;2.08;;;20.90;99.90;;;;;;5045669;28;20186;-59
2022/05/16 11:52:17;;;;;;;2.28;1.65;;;21.00;99.90;;;;;;5047076;28;20056;-59
2022/05/16 12:01:28;;;;;;;3.47;1.90;;;21.80;99.90;;;;;;5018166;28;20148;-59
2022/05/16 12:04:13;;;;;;;3.17;1.60;;;22.20;99.90;;;;;;5024400;28;20119;-59
2022/05/16 12:06:43;;;;;;;2.63;1.52;;;22.30;99.90;;;;;;5046465;28;20517;-59
2022/05/16 12:09:17;;;;;;;2.65;1.60;;;22.50;99.90;;;;;;5046642;28;20500;-59
2022/05/16 12:11:56;;;;;;;2.60;1.20;;;22.50;99.90;;;;;;5047482;28;20080;-59
2022/05/16 12:14:35;;;;;;;3.30;1.40;;;22.50;99.90;;;;;;5045928;28;20056;-60
2022/05/16 12:17:07;;;;;;;3.28;1.48;;;22.30;99.90;;;;;;5030224;28;20095;-60
2022/05/16 12:19:37;;;;;;;3.58;1.23;;;22.20;99.90;;;;;;5045574;28;20085;-59
2022/05/16 12:22:11;;;;;;;2.22;1.25;;;22.10;99.90;;;;;;5029543;28;20088;-60
2022/05/16 12:24:53;;;;;;;2.92;1.13;;;22.10;99.90;;;;;;5043545;28;20087;-60
2022/05/16 12:27:35;;;;;;;1.60;1.00;;;22.80;99.90;;;;;;5043675;28;20135;-60
2022/05/16 12:30:08;;;;;;;4.18;1.42;;;22.90;99.90;;;;;;5045411;28;20247;-60
2022/05/16 12:32:35;;;;;;;3.17;1.63;;;22.60;99.90;;;;;;5045793;28;20077;-59
2022/05/16 12:35:08;;;;;;;2.78;1.30;;;22.40;99.90;;;;;;5042092;28;20163;-60
2022/05/16 12:37:36;;;;;;;3.85;1.52;;;22.30;99.90;;;;;;5044048;28;20072;-60
2022/05/16 12:40:24;;;;;;;4.78;1.58;;;22.40;99.90;;;;;;5028617;28;20136;-60
2022/05/16 12:43:00;;;;;;;3.13;1.35;;;22.80;99.90;;;;;;5029327;28;20083;-60
2022/05/16 12:45:55;;;;;;;2.03;1.25;;;23.60;99.90;;;;;;5045973;28;20050;-60
2022/05/16 12:48:51;;;;;;;3.08;1.27;;;24.40;99.90;;;;;;5046584;28;20049;-60
2022/05/16 12:51:39;;;;;;;2.72;0.93;;;24.30;99.90;;;;;;5044196;28;20131;-60
2022/05/16 12:54:22;;;;;;;2.30;0.80;;;24.00;99.90;;;;;;5043123;28;20126;-60
2022/05/16 12:56:50;;;;;;;1.48;0.80;;;23.60;99.90;;;;;;5044701;28;20547;-59
2022/05/16 12:59:38;;;;;;;2.22;1.05;;;23.30;99.90;;;;;;5011150;28;20132;-60
2022/05/16 13:02:04;;;;;;;2.10;1.08;;;23.20;99.90;;;;;;5046267;28;20132;-60
2022/05/16 13:04:59;;;;;;;1.95;1.10;;;23.30;99.90;;;;;;5044498;28;20507;-60
2022/05/16 13:07:52;;;;;;;2.85;1.10;;;23.20;99.90;;;;;;5045773;28;20435;-61
2022/05/16 13:10:39;;;;;;;2.88;1.30;;;23.00;99.90;;;;;;5045568;28;20512;-60
2022/05/16 13:13:41;;;;;;;2.22;1.20;;;23.40;99.90;;;;;;5046496;28;20045;-61
2022/05/16 13:16:11;;;;;;;2.72;1.20;;;23.90;99.90;;;;;;5024718;28;20460;-60
2022/05/16 13:18:46;;;;;;;2.92;0.98;;;24.00;99.90;;;;;;5036872;28;20492;-59
2022/05/16 13:21:18;;;;;;;2.33;1.15;;;23.80;99.90;;;;;;5035928;28;20107;-59
2022/05/16 13:23:45;;;;;;;1.90;0.70;;;24.50;99.90;;;;;;5034136;28;20073;-60
2022/05/16 13:31:45;;;;;;;2.95;1.05;;;24.60;99.90;;;;;;5023853;28;20474;-59
2022/05/16 13:34:13;;;;;;;3.05;1.10;;;23.90;99.90;;;;;;5036413;28;20096;-60
2022/05/16 13:36:46;;;;;;;1.90;0.90;;;23.60;99.90;;;;;;5038091;28;20110;-60
2022/05/16 13:39:14;;;;;;;2.83;1.20;;;23.30;99.90;;;;;;5039328;28;20700;-60
2022/05/16 13:41:42;;;;;;;4.25;2.22;;;23.60;99.90;;;;;;5039607;28;20052;-60
2022/05/16 13:44:12;;;;;;;2.42;1.25;;;23.60;99.90;;;;;;5039315;28;20088;-60
2022/05/16 13:46:39;;;;;;;3.13;1.10;;;23.40;99.90;;;;;;5030752;28;20143;-59
2022/05/16 13:49:10;;;;;;;4.18;1.23;;;23.30;99.90;;;;;;5040334;28;20099;-59
2022/05/16 13:51:50;;;;;;;4.50;0.80;;;23.20;99.90;;;;;;5014118;28;20054;-60
2022/05/16 13:54:23;;;;;;;2.28;1.23;;;23.40;99.90;;;;;;5017381;28;20723;-60